KPDX/PDX METAR and TAF weather

Enter ICAO airport designator
Station Type Date Time Source
KPDX METAR 2020/07/11 02:53 UTC NOAA

KPDX 110253Z 32006KT 10SM CLR 24/13 A3008 RMK AO2 SLP186 T02440133 56009


Station Type Date Time Source
KPDX Decoded METAR 2020/07/11 02:53 UTC NOAA

PORTLAND INTERNATIONAL AIRPORT, OR, United States (KPDX) 45-35N 122-36W 7M
Jul 10, 2020 - 10:53 PM EDT / 2020.07.11 0253 UTC
Wind: from the NW (320 degrees) at 7 MPH (6 KT):0
Visibility: 10 mile(s):0
Sky conditions: clear
Temperature: 75.9 F (24.4 C)
Dew Point: 55.9 F (13.3 C)
Relative Humidity: 49%
Pressure (altimeter): 30.08 in. Hg (1018 hPa)
Pressure tendency: 0.03 inches (0.9 hPa) lower than three hours ago
ob: KPDX 110253Z 32006KT 10SM CLR 24/13 A3008 RMK AO2 SLP186 T02440133 56009
cycle: 3

Station Type Date Time Source
KPDX TAF 2020/07/11 03:57 UTC NOAA

TAF
AMD KPDX 110255Z 1103/1124 31008KT P6SM SKC
FM111200 VRB03KT P6SM FEW120
FM112100 27006KT P6SM SCT100

Example: see airport list